Time;durP1;ratioP1;P1;durP2;ratioP2;P2;SDS_P1;SDS_P2;PMS_P1;PMS_P2;Temp;Humidity;BMP_temperature;BMP_pressure;BME280_temperature;BME280_humidity;BME280_pressure;Samples;Min_cycle;Max_cycle;Signal;HPM_P1;HPM_P2
2021/01/24 00:00:53;;;;;;;8.40;6.50;;;;;;;1.93;91.44;96580.38;4861911;29;20055;-74
2021/01/24 00:03:19;;;;;;;6.75;5.10;;;;;;;2.10;91.56;96583.44;4862149;29;20066;-74
2021/01/24 00:05:45;;;;;;;6.20;4.60;;;;;;;2.02;90.57;96582.75;4876625;29;20022;-74
2021/01/24 00:08:14;;;;;;;6.30;4.57;;;;;;;2.00;90.19;96581.94;4876889;29;20033;-68
2021/01/24 00:10:39;;;;;;;4.95;4.38;;;;;;;1.99;90.80;96581.13;4860889;29;20040;-68
2021/01/24 00:13:05;;;;;;;7.30;4.20;;;;;;;2.02;90.25;96581.03;4861056;29;20037;-68
2021/01/24 00:15:30;;;;;;;4.72;3.92;;;;;;;2.18;91.62;96585.84;4861112;29;20081;-67
2021/01/24 00:17:56;;;;;;;4.95;4.22;;;;;;;1.99;92.35;96580.28;4860741;29;20026;-67
2021/01/24 00:20:22;;;;;;;5.57;4.38;;;;;;;2.14;91.82;96579.97;4860604;29;20443;-67
2021/01/24 00:22:47;;;;;;;6.75;3.80;;;;;;;2.03;92.34;96587.84;4859308;29;20037;-67
2021/01/24 00:25:12;;;;;;;4.00;3.60;;;;;;;2.10;91.27;96593.66;4860600;29;20026;-67
2021/01/24 00:27:38;;;;;;;4.07;3.03;;;;;;;2.08;91.39;96590.31;4860784;29;20031;-67
2021/01/24 00:30:06;;;;;;;2.88;2.65;;;;;;;2.12;91.88;96591.91;4860466;29;20485;-67
2021/01/24 00:32:31;;;;;;;3.25;2.88;;;;;;;2.11;92.43;96580.00;4860381;29;20030;-67
2021/01/24 00:34:57;;;;;;;3.80;2.92;;;;;;;2.25;91.87;96584.84;4859270;29;20022;-67
2021/01/24 00:37:22;;;;;;;4.57;2.40;;;;;;;2.37;90.90;96591.41;4874770;29;20448;-66
2021/01/24 00:39:47;;;;;;;3.72;3.08;;;;;;;2.17;92.24;96591.81;4860452;29;20029;-67
2021/01/24 00:42:13;;;;;;;3.45;2.90;;;;;;;2.08;92.37;96605.63;4860201;29;20033;-67
2021/01/24 00:44:38;;;;;;;4.03;2.90;;;;;;;2.03;92.82;96592.97;4860244;29;20073;-67
2021/01/24 00:47:03;;;;;;;3.55;3.25;;;;;;;2.14;92.53;96600.41;4860309;29;20032;-67
2021/01/24 00:49:29;;;;;;;5.38;2.92;;;;;;;2.15;93.97;96599.53;4860136;29;20040;-67
2021/01/24 00:51:54;;;;;;;9.05;3.40;;;;;;;2.08;94.10;96597.97;4860056;29;20030;-67
2021/01/24 00:54:21;;;;;;;3.42;3.05;;;;;;;2.02;94.41;96601.47;4860188;29;20501;-67
2021/01/24 00:56:46;;;;;;;3.65;3.00;;;;;;;2.01;93.63;96599.78;4860248;29;20029;-67
2021/01/24 00:59:12;;;;;;;2.88;2.67;;;;;;;1.94;93.47;96602.50;4860124;29;20388;-67
2021/01/24 08:00:43;;;;;;;5.93;3.07;;;;;;;1.05;71.79;97152.25;5724605;23;20052;-75
2021/01/24 08:03:08;;;;;;;4.78;2.63;;;;;;;1.12;71.61;97151.38;4879767;29;20033;-74
2021/01/24 08:05:33;;;;;;;6.65;3.08;;;;;;;1.35;70.52;97153.72;4879623;29;20025;-76
2021/01/24 08:08:00;;;;;;;27.45;12.90;;;;;;;1.66;69.84;97154.34;4879635;29;20479;-75
2021/01/24 08:10:29;;;;;;;4.47;2.75;;;;;;;1.79;68.90;97155.09;4879221;29;20071;-75
2021/01/24 08:12:55;;;;;;;14.63;6.40;;;;;;;1.47;68.50;97158.75;4879697;29;20021;-75
2021/01/24 08:15:21;;;;;;;7.07;3.08;;;;;;;1.40;69.32;97166.47;4901993;23;20048;-75
2021/01/24 08:17:47;;;;;;;3.17;2.67;;;;;;;1.39;69.14;97172.44;4898045;29;20477;-75
2021/01/24 08:20:14;;;;;;;4.55;3.00;;;;;;;1.34;69.24;97161.41;4897691;29;20087;-75
2021/01/24 08:22:39;;;;;;;6.63;4.00;;;;;;;1.21;69.18;97174.28;4897925;29;20375;-75
2021/01/24 08:25:05;;;;;;;3.63;2.55;;;;;;;1.14;70.17;97167.50;4884672;29;20036;-75
2021/01/24 08:27:32;;;;;;;4.18;3.40;;;;;;;1.08;69.69;97172.66;4879433;29;20028;-76
2021/01/24 08:29:57;;;;;;;2.75;2.45;;;;;;;1.21;69.42;97174.28;4879174;29;20478;-75
2021/01/24 08:32:23;;;;;;;3.03;2.25;;;;;;;1.35;69.98;97173.31;4877876;29;20040;-75
2021/01/24 08:34:48;;;;;;;5.60;2.85;;;;;;;1.40;68.99;97174.13;4879034;29;20077;-75
2021/01/24 08:37:15;;;;;;;4.95;3.05;;;;;;;1.41;69.36;97180.94;4879029;29;20033;-75
2021/01/24 08:39:40;;;;;;;5.85;2.80;;;;;;;1.57;69.33;97185.03;4878977;29;20053;-75
2021/01/24 08:42:06;;;;;;;7.90;2.88;;;;;;;2.00;67.92;97174.44;4879014;29;20033;-75
2021/01/24 08:44:32;;;;;;;5.13;2.30;;;;;;;2.96;64.80;97180.97;4879006;29;20028;-75
2021/01/24 08:47:05;;;;;;;4.53;2.60;;;;;;;5.74;56.91;97164.50;4879002;29;20029;-75
2021/01/24 08:49:31;;;;;;;3.05;2.10;;;;;;;7.04;51.39;97171.25;4878938;29;20035;-75
2021/01/24 08:51:58;;;;;;;5.93;2.90;;;;;;;6.44;52.01;97172.13;4878737;29;20025;-75
2021/01/24 08:54:34;;;;;;;3.88;2.45;;;;;;;5.22;55.08;97186.28;4878663;29;20041;-75
2021/01/24 08:57:09;;;;;;;3.70;2.00;;;;;;;5.83;53.90;97183.97;4878758;29;20031;-75
2021/01/24 08:59:35;;;;;;;4.50;3.08;;;;;;;4.80;56.81;97194.03;4878640;29;20052;-75
2021/01/24 09:02:02;;;;;;;4.32;3.55;;;;;;;3.81;60.11;97198.44;4878623;29;20072;-76
2021/01/24 09:04:29;;;;;;;4.35;2.58;;;;;;;2.71;63.47;97203.47;4878629;29;20035;-75
2021/01/24 09:07:09;;;;;;;4.45;3.22;;;;;;;2.42;65.53;97218.28;4878843;29;20444;-75
2021/01/24 09:09:37;;;;;;;6.10;2.47;;;;;;;2.19;66.36;97216.81;4878472;29;20029;-75
2021/01/24 09:12:03;;;;;;;9.63;4.22;;;;;;;1.90;66.69;97219.66;4878422;29;20060;-74
2021/01/24 09:14:29;;;;;;;8.88;3.13;;;;;;;2.00;67.74;97225.53;4878446;29;20057;-72
2021/01/24 09:17:06;;;;;;;5.20;2.45;;;;;;;1.86;68.02;97227.34;4878379;29;20558;-76
2021/01/24 09:19:33;;;;;;;3.60;3.03;;;;;;;1.78;69.38;97225.69;4878764;29;20100;-78
2021/01/24 09:21:58;;;;;;;5.60;3.05;;;;;;;1.80;68.48;97224.00;4878331;29;20025;-76
2021/01/24 09:24:24;;;;;;;8.18;3.35;;;;;;;1.76;69.88;97231.69;4878409;29;20698;-76
2021/01/24 09:26:49;;;;;;;7.40;4.93;;;;;;;1.80;68.97;97234.22;4878358;29;20025;-76
2021/01/24 09:29:16;;;;;;;6.32;3.30;;;;;;;1.95;69.15;97229.84;4878353;29;20037;-77
2021/01/24 09:31:42;;;;;;;10.50;4.85;;;;;;;1.74;67.85;97226.59;4876117;29;20040;-77
2021/01/24 09:34:07;;;;;;;6.68;3.80;;;;;;;1.65;69.62;97243.72;4878260;29;20028;-78
2021/01/24 09:36:33;;;;;;;8.38;3.25;;;;;;;1.53;69.84;97235.25;4878131;29;20522;-77
2021/01/24 09:38:58;;;;;;;5.40;4.03;;;;;;;1.48;70.01;97246.38;4878314;29;20053;-77
2021/01/24 09:41:24;;;;;;;6.35;3.97;;;;;;;1.53;71.31;97254.84;4878150;29;20553;-77
2021/01/24 09:43:49;;;;;;;9.25;4.93;;;;;;;1.53;72.21;97249.72;4878170;29;20029;-77
2021/01/24 09:46:14;;;;;;;6.70;3.05;;;;;;;1.42;72.98;97252.38;4878126;29;20021;-77
2021/01/24 09:48:39;;;;;;;6.13;3.28;;;;;;;1.54;74.18;97251.41;4878156;29;20737;-77
2021/01/24 09:51:08;;;;;;;6.32;2.60;;;;;;;1.34;75.56;97263.47;4877912;29;20116;-77
2021/01/24 09:53:37;;;;;;;2.67;2.47;;;;;;;1.26;75.84;97266.91;4878193;29;20096;-77
2021/01/24 09:56:04;;;;;;;3.70;2.53;;;;;;;1.23;76.91;97271.19;4878108;29;20032;-77
2021/01/24 09:58:30;;;;;;;3.15;2.55;;;;;;;1.28;78.01;97275.41;4878010;29;20475;-77
2021/01/24 10:00:55;;;;;;;7.88;4.07;;;;;;;1.23;77.90;97274.59;4877765;29;20112;-77
2021/01/24 10:03:21;;;;;;;6.10;2.78;;;;;;;1.32;78.59;97275.41;4878055;29;20088;-77
2021/01/24 10:05:46;;;;;;;3.72;2.95;;;;;;;1.26;78.95;97277.13;4892181;29;20076;-77
2021/01/24 10:08:11;;;;;;;3.05;2.45;;;;;;;1.28;79.00;97270.31;4878116;29;20037;-77
2021/01/24 10:10:36;;;;;;;3.95;2.47;;;;;;;1.47;78.29;97280.41;4877751;29;20033;-77
2021/01/24 10:13:02;;;;;;;4.45;3.17;;;;;;;1.49;78.59;97274.41;4878079;29;20498;-77
2021/01/24 10:15:28;;;;;;;7.80;3.42;;;;;;;1.58;77.93;97282.88;4892158;29;20056;-76
2021/01/24 10:17:53;;;;;;;5.85;3.25;;;;;;;1.69;77.74;97276.84;4875314;29;20036;-76
2021/01/24 10:20:19;;;;;;;7.07;3.10;;;;;;;1.91;78.04;97276.69;4882105;29;20449;-76
2021/01/24 10:22:45;;;;;;;3.53;2.42;;;;;;;1.76;76.61;97278.50;4889201;29;20029;-76
2021/01/24 10:25:10;;;;;;;4.38;2.80;;;;;;;1.56;77.12;97285.44;4877937;29;20108;-76
2021/01/24 10:27:36;;;;;;;3.75;3.05;;;;;;;1.70;77.36;97283.66;4889613;29;20660;-77
2021/01/24 10:30:02;;;;;;;3.85;3.50;;;;;;;1.73;76.88;97287.88;4880883;29;20029;-77
2021/01/24 10:32:27;;;;;;;12.85;3.10;;;;;;;1.83;77.85;97283.53;4892809;29;20104;-76
2021/01/24 10:34:53;;;;;;;6.32;2.85;;;;;;;2.06;77.04;97284.22;4882368;29;20031;-76
2021/01/24 10:37:18;;;;;;;7.20;3.85;;;;;;;1.98;76.94;97285.97;4887119;29;20040;-76
2021/01/24 10:39:43;;;;;;;3.90;2.70;;;;;;;1.94;76.47;97289.44;4883380;29;20033;-77
2021/01/24 10:42:09;;;;;;;4.07;2.63;;;;;;;1.93;76.35;97295.38;4892750;29;20029;-76
2021/01/24 10:44:34;;;;;;;3.67;2.65;;;;;;;1.93;76.64;97290.28;4884252;29;20103;-76
2021/01/24 10:46:59;;;;;;;6.10;2.85;;;;;;;2.11;75.82;97284.19;4892380;29;20049;-75
2021/01/24 10:49:24;;;;;;;5.15;2.95;;;;;;;2.03;74.99;97286.78;4891078;29;20032;-75
2021/01/24 10:51:50;;;;;;;3.38;2.70;;;;;;;2.24;74.54;97285.75;4885661;29;20461;-76
2021/01/24 10:54:15;;;;;;;4.82;2.60;;;;;;;2.37;73.28;97281.38;4896111;29;20028;-76
2021/01/24 10:56:40;;;;;;;6.20;3.30;;;;;;;2.59;73.88;97282.84;4886012;29;20023;-76
2021/01/24 10:59:08;;;;;;;9.40;2.90;;;;;;;2.64;72.27;97278.53;4891125;29;20025;-77
2021/01/24 11:01:34;;;;;;;12.32;2.78;;;;;;;2.84;70.95;97281.72;4891996;29;20028;-75
2021/01/24 11:03:59;;;;;;;3.80;2.63;;;;;;;2.74;70.67;97282.69;4884052;29;20558;-77
2021/01/24 11:06:25;;;;;;;5.20;2.00;;;;;;;2.46;69.66;97271.06;4890197;29;20107;-76
2021/01/24 11:08:50;;;;;;;2.90;2.20;;;;;;;2.47;68.84;97283.00;4892238;29;20021;-76
2021/01/24 11:11:15;;;;;;;3.38;1.73;;;;;;;2.41;66.70;97277.94;4893464;29;20075;-76
2021/01/24 11:13:41;;;;;;;2.25;2.05;;;;;;;2.35;67.28;97283.94;4892763;29;20020;-76
2021/01/24 11:16:06;;;;;;;2.42;2.00;;;;;;;2.33;66.60;97287.41;4883513;29;20040;-76
2021/01/24 11:18:31;;;;;;;3.65;2.00;;;;;;;2.52;66.60;97276.13;4887951;29;20028;-76
2021/01/24 11:20:57;;;;;;;4.85;2.38;;;;;;;2.51;65.50;97289.75;4886779;29;20043;-76
2021/01/24 11:23:22;;;;;;;4.05;2.28;;;;;;;2.58;65.24;97286.28;4888917;29;20028;-76
2021/01/24 11:25:47;;;;;;;5.93;2.00;;;;;;;2.58;63.91;97286.28;4893481;29;20024;-76
2021/01/24 11:28:13;;;;;;;2.13;1.60;;;;;;;2.43;62.91;97287.28;4883245;29;20032;-76
2021/01/24 11:30:38;;;;;;;5.53;2.10;;;;;;;2.45;63.64;97289.81;4894097;29;20017;-77
2021/01/24 11:33:04;;;;;;;2.05;1.85;;;;;;;2.49;62.97;97291.47;4887742;29;20033;-76
2021/01/24 11:35:29;;;;;;;1.98;1.83;;;;;;;2.55;63.50;97296.53;4887659;29;20033;-76
2021/01/24 11:37:54;;;;;;;2.08;1.77;;;;;;;2.48;62.79;97300.88;4894006;29;20469;-76
2021/01/24 11:40:20;;;;;;;4.05;1.50;;;;;;;2.45;61.94;97302.59;4886562;29;20048;-76
2021/01/24 11:42:45;;;;;;;3.08;1.98;;;;;;;2.51;61.35;97300.81;4893100;29;20025;-76
2021/01/24 11:45:11;;;;;;;2.13;1.60;;;;;;;2.59;62.92;97298.19;4888280;29;20021;-77
2021/01/24 11:47:36;;;;;;;5.53;1.60;;;;;;;2.62;61.33;97305.84;4886519;29;20025;-76
2021/01/24 11:50:04;;;;;;;4.05;1.90;;;;;;;2.77;62.70;97299.72;4894868;29;20029;-74
2021/01/24 11:52:29;;;;;;;7.13;2.40;;;;;;;2.75;61.63;97292.03;4867570;29;20052;-75
2021/01/24 11:54:54;;;;;;;2.55;1.60;;;;;;;2.72;61.39;97306.59;4890913;29;20053;-75
2021/01/24 11:57:20;;;;;;;5.35;2.20;;;;;;;2.57;61.28;97299.94;4889260;29;20426;-75
2021/01/24 11:59:45;;;;;;;4.30;2.30;;;;;;;2.58;61.90;97296.50;4884858;29;20092;-75
2021/01/24 12:02:10;;;;;;;2.38;1.70;;;;;;;2.63;61.71;97304.97;4894942;29;20099;-75
2021/01/24 12:04:36;;;;;;;5.90;1.98;;;;;;;2.72;62.40;97315.09;4883507;29;20024;-76
2021/01/24 12:07:01;;;;;;;2.97;2.25;;;;;;;2.75;63.46;97304.81;4890773;29;20025;-76
2021/01/24 12:09:27;;;;;;;5.18;2.58;;;;;;;2.66;62.51;97309.19;4889920;29;20478;-76
2021/01/24 12:11:52;;;;;;;3.97;1.98;;;;;;;2.52;63.12;97311.91;4883795;29;20169;-75
2021/01/24 12:14:17;;;;;;;2.65;1.80;;;;;;;2.41;63.11;97318.81;4880963;29;20489;-76
2021/01/24 12:16:43;;;;;;;5.80;2.30;;;;;;;2.45;63.08;97328.16;4892903;29;20017;-75
2021/01/24 12:19:08;;;;;;;3.35;1.70;;;;;;;2.39;63.87;97333.34;4887304;29;20040;-76
2021/01/24 12:21:33;;;;;;;1.95;1.60;;;;;;;2.28;64.08;97328.31;4886188;29;20074;-76
2021/01/24 12:23:59;;;;;;;5.00;1.70;;;;;;;2.34;63.05;97337.63;4893830;29;20501;-76
2021/01/24 12:26:25;;;;;;;3.15;1.90;;;;;;;2.34;63.76;97328.25;4882249;29;20020;-76
2021/01/24 12:28:51;;;;;;;5.50;1.67;;;;;;;2.45;64.67;97338.38;4891482;29;20036;-76
2021/01/24 12:31:16;;;;;;;4.93;1.92;;;;;;;2.43;63.49;97327.34;4887995;29;20032;-76
2021/01/24 12:33:41;;;;;;;2.25;1.70;;;;;;;2.31;63.96;97347.00;4885214;29;20033;-76
2021/01/24 12:36:07;;;;;;;3.45;1.80;;;;;;;2.26;63.50;97351.31;4894267;29;20048;-75
2021/01/24 12:38:32;;;;;;;7.60;1.95;;;;;;;2.42;64.29;97343.50;4882333;29;20031;-76
2021/01/24 12:40:57;;;;;;;5.38;2.17;;;;;;;2.32;63.18;97340.19;4890289;29;20032;-75
2021/01/24 12:43:23;;;;;;;4.75;2.40;;;;;;;2.27;64.65;97347.03;4888937;29;20079;-76
2021/01/24 12:45:48;;;;;;;1.98;1.77;;;;;;;2.27;64.28;97342.81;4883843;29;20093;-76
2021/01/24 12:48:13;;;;;;;4.38;2.42;;;;;;;2.35;64.32;97342.72;4893863;29;20389;-76
2021/01/24 12:50:39;;;;;;;5.68;2.50;;;;;;;2.48;64.13;97346.03;4895808;29;20033;-76
2021/01/24 12:53:04;;;;;;;1.85;1.70;;;;;;;2.42;63.77;97351.19;4889416;29;20044;-76
2021/01/24 12:55:29;;;;;;;4.68;2.40;;;;;;;2.46;63.39;97347.75;4889611;29;20127;-76
2021/01/24 12:57:56;;;;;;;4.75;1.90;;;;;;;2.45;63.56;97356.28;4881421;29;20444;-76
2021/01/24 13:00:22;;;;;;;1.70;1.60;;;;;;;2.42;63.01;97356.28;4893633;29;20104;-76
2021/01/24 13:02:47;;;;;;;3.60;1.65;;;;;;;2.40;64.01;97358.03;4883901;29;20025;-76
2021/01/24 13:05:15;;;;;;;4.20;2.00;;;;;;;2.49;64.03;97363.06;4886778;29;20037;-76
2021/01/24 13:07:41;;;;;;;4.13;3.05;;;;;;;2.49;63.66;97357.94;4890871;29;20059;-75
2021/01/24 13:10:07;;;;;;;3.38;1.83;;;;;;;2.53;63.00;97362.19;4881534;29;20056;-76
2021/01/24 13:12:32;;;;;;;2.33;2.00;;;;;;;2.46;63.10;97361.34;4890617;29;20028;-75
2021/01/24 13:14:57;;;;;;;4.32;2.38;;;;;;;2.43;62.05;97360.56;4889838;29;20172;-76
2021/01/24 13:17:22;;;;;;;3.33;2.58;;;;;;;2.43;61.83;97361.41;4888525;29;20039;-75
2021/01/24 13:19:48;;;;;;;6.82;3.13;;;;;;;2.49;62.43;97357.94;4883378;29;20033;-75
2021/01/24 13:22:13;;;;;;;8.25;4.05;;;;;;;2.51;62.33;97371.53;4893571;29;20040;-75
2021/01/24 13:24:39;;;;;;;5.38;2.05;;;;;;;2.36;62.32;97371.69;4882597;29;20031;-75
2021/01/24 13:27:04;;;;;;;9.90;2.83;;;;;;;2.26;62.73;97363.25;4889040;29;20031;-76
2021/01/24 13:29:30;;;;;;;5.90;2.45;;;;;;;2.23;63.01;97371.78;4889080;29;20394;-75
2021/01/24 13:31:55;;;;;;;5.63;2.45;;;;;;;2.25;63.06;97370.06;4881688;29;20394;-75
2021/01/24 13:34:20;;;;;;;4.00;2.60;;;;;;;2.37;63.18;97370.81;4880207;29;20060;-76
2021/01/24 13:36:46;;;;;;;3.05;2.13;;;;;;;2.33;63.38;97374.28;4891431;29;20024;-76
2021/01/24 13:39:11;;;;;;;2.88;2.03;;;;;;;2.27;63.64;97381.13;4886633;29;20462;-76
2021/01/24 13:41:36;;;;;;;6.80;2.35;;;;;;;2.24;63.70;97378.59;4884529;29;20298;-76
2021/01/24 13:44:02;;;;;;;2.95;2.25;;;;;;;2.35;63.38;97381.06;4893090;29;20442;-76
2021/01/24 13:46:27;;;;;;;3.28;1.92;;;;;;;2.37;62.58;97383.59;4879916;29;20063;-75
2021/01/24 13:48:53;;;;;;;4.38;1.90;;;;;;;2.25;63.17;97380.28;4890423;29;20029;-74
2021/01/24 13:51:18;;;;;;;3.53;2.05;;;;;;;2.28;62.37;97395.59;4887372;29;20047;-74
2021/01/24 13:53:43;;;;;;;3.95;2.22;;;;;;;2.40;63.60;97393.81;4884009;29;20025;-74
2021/01/24 13:56:09;;;;;;;2.88;2.08;;;;;;;2.40;61.97;97393.81;4893297;29;20025;-74
2021/01/24 13:58:34;;;;;;;2.30;2.10;;;;;;;2.38;61.21;97396.38;4881689;29;20474;-74
2021/01/24 14:00:59;;;;;;;2.95;2.33;;;;;;;2.42;61.67;97402.28;4896565;29;20506;-73
2021/01/24 14:03:25;;;;;;;5.95;2.47;;;;;;;2.45;61.74;97404.84;4886085;29;20032;-74
2021/01/24 14:05:50;;;;;;;7.20;2.40;;;;;;;2.47;60.86;97405.69;4891694;29;20056;-70
2021/01/24 14:08:15;;;;;;;5.55;3.03;;;;;;;2.55;60.86;97403.91;4880961;29;20025;-72
2021/01/24 14:10:41;;;;;;;3.88;2.30;;;;;;;2.56;60.94;97392.81;4891588;29;20029;-74
2021/01/24 14:13:06;;;;;;;2.65;2.10;;;;;;;2.71;60.04;97396.97;4877821;29;20032;-72
2021/01/24 14:15:32;;;;;;;4.78;2.05;;;;;;;2.67;60.28;97403.81;4941289;23;20044;-76
2021/01/24 14:17:58;;;;;;;4.35;2.30;;;;;;;2.70;60.49;97401.19;4901207;29;20033;-76
2021/01/24 14:20:24;;;;;;;4.00;2.10;;;;;;;2.55;59.40;97398.78;4915570;29;20505;-76
2021/01/24 14:22:50;;;;;;;4.53;2.47;;;;;;;2.65;61.81;97399.56;4903252;29;20135;-76
2021/01/24 14:25:16;;;;;;;3.53;2.22;;;;;;;2.69;62.26;97396.97;4887077;29;20058;-76
2021/01/24 14:27:41;;;;;;;7.55;2.85;;;;;;;2.67;61.36;97398.69;4879722;29;20495;-75
2021/01/24 14:30:08;;;;;;;4.72;2.08;;;;;;;2.86;59.48;97398.53;4870966;29;20085;-75
2021/01/24 14:32:33;;;;;;;2.92;1.92;;;;;;;2.96;60.43;97392.44;4873151;29;20064;-75
2021/01/24 14:34:59;;;;;;;3.85;2.03;;;;;;;3.06;60.56;97401.72;4885280;29;20056;-75
2021/01/24 14:37:24;;;;;;;2.78;2.17;;;;;;;2.93;59.80;97400.16;4872879;29;20993;-75
2021/01/24 14:39:49;;;;;;;3.30;2.10;;;;;;;3.03;60.34;97407.69;4870713;29;20028;-75
2021/01/24 14:42:15;;;;;;;3.22;2.13;;;;;;;2.78;60.34;97407.09;4866719;29;20033;-75
2021/01/24 14:44:40;;;;;;;3.22;2.03;;;;;;;2.62;60.97;97410.66;4872198;29;20029;-75
2021/01/24 14:47:05;;;;;;;2.53;2.20;;;;;;;2.63;61.99;97414.91;4866946;29;20461;-75
2021/01/24 14:49:31;;;;;;;5.40;2.72;;;;;;;2.54;61.10;97412.44;4866991;29;21472;-75
2021/01/24 14:51:56;;;;;;;4.60;2.95;;;;;;;2.53;60.56;97414.16;4871325;29;20037;-75
2021/01/24 14:54:21;;;;;;;5.53;2.50;;;;;;;2.36;61.59;97412.56;4870725;29;20033;-75
2021/01/24 14:56:46;;;;;;;2.67;2.47;;;;;;;2.27;61.63;97419.47;4866401;29;20116;-75
2021/01/24 14:59:12;;;;;;;4.63;2.25;;;;;;;2.14;62.48;97428.06;4866720;29;20032;-75
2021/01/24 15:01:37;;;;;;;5.43;2.30;;;;;;;2.07;63.44;97428.94;4866584;29;20072;-75
2021/01/24 15:04:03;;;;;;;16.05;6.38;;;;;;;1.97;63.36;97428.16;4871428;29;20514;-75
2021/01/24 15:06:29;;;;;;;11.32;5.55;;;;;;;1.90;63.56;97428.22;4866722;29;20025;-75
2021/01/24 15:08:54;;;;;;;6.57;2.85;;;;;;;1.82;63.59;97430.81;4865926;29;20399;-75
2021/01/24 15:11:19;;;;;;;3.17;2.30;;;;;;;1.79;64.59;97441.91;4866239;29;20040;-75
2021/01/24 15:13:45;;;;;;;5.07;2.22;;;;;;;1.72;64.33;97436.81;4866815;29;20033;-75
2021/01/24 15:16:10;;;;;;;10.60;4.95;;;;;;;1.67;65.28;97441.94;4868468;29;20063;-75
2021/01/24 15:18:35;;;;;;;7.00;3.53;;;;;;;1.58;65.04;97431.75;4866186;29;20041;-75
2021/01/24 15:21:01;;;;;;;10.95;3.28;;;;;;;1.46;65.58;97442.03;4866418;29;21449;-75
2021/01/24 15:23:26;;;;;;;6.78;3.60;;;;;;;1.54;65.43;97441.13;4867515;29;20884;-75
2021/01/24 15:25:51;;;;;;;3.58;2.58;;;;;;;1.59;66.25;97440.25;4871453;29;20052;-75
2021/01/24 15:28:16;;;;;;;9.68;4.28;;;;;;;1.53;65.99;97439.44;4872901;29;20017;-75
2021/01/24 15:30:42;;;;;;;5.60;2.90;;;;;;;1.52;66.31;97442.00;4864905;29;20065;-75
2021/01/24 15:33:07;;;;;;;4.18;2.30;;;;;;;1.53;66.23;97438.59;4871924;29;20403;-75
2021/01/24 15:35:32;;;;;;;4.18;2.92;;;;;;;1.63;66.71;97445.34;4868060;29;20065;-75
2021/01/24 15:37:58;;;;;;;11.98;4.13;;;;;;;1.66;67.00;97440.25;4871712;29;20096;-75
2021/01/24 15:40:23;;;;;;;7.50;3.63;;;;;;;1.60;66.62;97447.94;4871617;29;20037;-75
2021/01/24 15:42:48;;;;;;;11.95;6.47;;;;;;;1.59;67.12;97448.78;4871698;29;20041;-75
2021/01/24 15:45:14;;;;;;;3.88;3.03;;;;;;;1.61;67.48;97447.06;4865662;29;20037;-75
2021/01/24 15:47:39;;;;;;;3.97;2.80;;;;;;;1.54;67.48;97446.22;4871650;29;20401;-75
2021/01/24 15:50:06;;;;;;;5.60;3.65;;;;;;;1.67;66.44;97446.19;4871635;29;20443;-75
2021/01/24 15:52:32;;;;;;;9.10;3.90;;;;;;;1.62;67.56;97443.66;4865494;29;20521;-75
2021/01/24 15:54:57;;;;;;;3.70;2.88;;;;;;;1.68;67.84;97448.72;4868742;29;20072;-75
2021/01/24 15:57:23;;;;;;;9.90;3.00;;;;;;;1.51;69.02;97445.41;4871325;29;20491;-75
2021/01/24 15:59:48;;;;;;;8.85;4.28;;;;;;;1.44;68.91;97451.38;4871420;29;20035;-75
2021/01/24 16:02:14;;;;;;;8.98;3.70;;;;;;;1.42;68.91;97450.56;4859436;29;20029;-75
2021/01/24 16:04:39;;;;;;;6.55;4.13;;;;;;;1.26;68.24;97458.25;4868017;29;20033;-75
2021/01/24 16:07:04;;;;;;;6.03;4.57;;;;;;;1.37;68.67;97457.38;4867615;29;20032;-75
2021/01/24 16:09:30;;;;;;;13.38;6.63;;;;;;;1.22;69.42;97461.66;4865414;29;20048;-75
2021/01/24 16:11:56;;;;;;;16.42;8.50;;;;;;;1.00;69.78;97458.28;4870254;29;20032;-76
2021/01/24 16:14:21;;;;;;;9.85;3.85;;;;;;;0.95;69.71;97448.97;4869136;29;20492;-75
2021/01/24 16:16:46;;;;;;;7.47;3.22;;;;;;;1.02;70.30;97460.88;4865278;29;20107;-75
2021/01/24 16:19:12;;;;;;;4.32;2.97;;;;;;;1.10;69.20;97456.56;4865104;29;20040;-75
2021/01/24 16:21:37;;;;;;;5.13;2.60;;;;;;;1.13;68.70;97453.19;4884979;29;20033;-75
2021/01/24 16:24:02;;;;;;;6.20;3.72;;;;;;;1.26;69.25;97465.06;4870030;29;20435;-75
2021/01/24 16:26:28;;;;;;;7.15;3.97;;;;;;;1.52;68.86;97452.22;4864873;29;20045;-75
2021/01/24 16:28:53;;;;;;;10.48;5.72;;;;;;;1.59;70.40;97461.53;4865250;29;20033;-75
2021/01/24 16:31:19;;;;;;;6.95;3.70;;;;;;;1.58;68.09;97454.72;4864909;29;20061;-75
2021/01/24 16:33:45;;;;;;;8.82;4.65;;;;;;;1.73;68.90;97457.22;4870543;29;20763;-75
2021/01/24 16:36:10;;;;;;;4.18;3.40;;;;;;;1.76;68.59;97464.03;4865142;29;20059;-75
2021/01/24 16:38:36;;;;;;;5.68;3.78;;;;;;;1.49;68.81;97467.53;4864996;29;20089;-75
2021/01/24 16:41:01;;;;;;;9.27;3.67;;;;;;;1.40;69.14;97459.91;4870156;29;20029;-75
2021/01/24 16:43:26;;;;;;;6.25;3.75;;;;;;;1.37;70.03;97463.31;4869156;29;20037;-74
2021/01/24 16:45:53;;;;;;;6.45;3.83;;;;;;;1.28;69.88;97469.28;4865038;29;20093;-74
2021/01/24 16:48:20;;;;;;;10.05;5.03;;;;;;;1.14;71.59;97465.91;4865385;29;20041;-75
2021/01/24 16:50:47;;;;;;;9.70;6.15;;;;;;;1.10;70.51;97460.81;4858211;29;20035;-75
2021/01/24 16:53:13;;;;;;;16.88;7.90;;;;;;;1.16;74.15;97473.56;4870541;29;20029;-75
2021/01/24 16:55:38;;;;;;;8.10;4.93;;;;;;;1.03;71.58;97473.59;4869446;29;20554;-75
2021/01/24 16:58:10;;;;;;;7.25;4.93;;;;;;;1.01;72.53;97474.44;4870427;29;20066;-75
2021/01/24 17:00:36;;;;;;;7.95;5.15;;;;;;;1.01;74.87;97474.44;4870237;29;20165;-75
2021/01/24 17:03:03;;;;;;;10.05;5.20;;;;;;;0.92;72.02;97480.41;4870282;29;20028;-75
2021/01/24 17:05:29;;;;;;;26.42;10.88;;;;;;;1.06;71.42;97475.28;4864453;29;20712;-75
2021/01/24 17:07:54;;;;;;;17.88;11.48;;;;;;;1.01;70.28;97469.34;4864431;29;20040;-75
2021/01/24 17:10:19;;;;;;;16.63;10.60;;;;;;;1.04;72.69;97482.09;4870028;29;20037;-75
2021/01/24 17:12:44;;;;;;;8.57;6.28;;;;;;;1.08;70.92;97477.84;4866967;29;20044;-75
2021/01/24 17:15:10;;;;;;;14.50;5.90;;;;;;;0.98;72.45;97479.56;4870051;29;20123;-74
2021/01/24 17:17:36;;;;;;;9.27;6.05;;;;;;;0.90;73.57;97476.16;4870256;29;20096;-75
2021/01/24 17:20:01;;;;;;;28.85;9.80;;;;;;;0.83;73.51;97469.38;4870225;29;20032;-75
2021/01/24 17:22:26;;;;;;;28.70;12.00;;;;;;;0.76;73.43;97464.25;4869920;29;20032;-76
2021/01/24 17:24:52;;;;;;;44.08;15.45;;;;;;;0.65;73.93;97475.31;4866920;29;20025;-76
2021/01/24 17:27:17;;;;;;;61.42;21.33;;;;;;;0.62;73.65;97473.63;4864192;29;20025;-75
2021/01/24 17:29:42;;;;;;;25.48;14.25;;;;;;;0.58;73.26;97464.28;4864123;29;20468;-75
2021/01/24 17:32:08;;;;;;;28.88;15.90;;;;;;;0.72;73.00;97461.72;4864708;29;20040;-75
2021/01/24 17:34:33;;;;;;;23.35;13.57;;;;;;;0.67;74.19;97458.31;4869394;29;21387;-76
2021/01/24 17:36:58;;;;;;;21.35;10.27;;;;;;;0.56;73.10;97460.88;4865546;29;20033;-76
2021/01/24 17:39:24;;;;;;;21.13;11.55;;;;;;;0.43;74.74;97454.91;4867891;29;20116;-76
2021/01/24 17:41:50;;;;;;;10.73;6.70;;;;;;;0.37;74.66;97448.97;4867237;29;20735;-75
2021/01/24 17:44:15;;;;;;;20.83;10.43;;;;;;;0.20;75.50;97452.38;4865631;29;20033;-76
2021/01/24 17:46:41;;;;;;;16.42;9.55;;;;;;;0.11;76.17;97448.97;4866252;29;20081;-76
2021/01/24 17:49:06;;;;;;;21.48;11.52;;;;;;;-0.03;76.76;97454.03;4867289;29;20025;-76
2021/01/24 17:51:31;;;;;;;34.95;13.52;;;;;;;-0.04;77.37;97444.69;4865218;29;20033;-76
2021/01/24 17:53:57;;;;;;;42.20;13.55;;;;;;;-0.15;77.25;97444.63;4871755;29;20061;-76
2021/01/24 17:56:22;;;;;;;17.42;8.35;;;;;;;-0.22;77.07;97439.53;4870959;29;20029;-76
2021/01/24 17:58:48;;;;;;;14.45;5.88;;;;;;;-0.24;77.44;97446.31;4870301;29;20039;-76
2021/01/24 18:01:13;;;;;;;6.70;4.78;;;;;;;-0.31;77.46;97451.38;4873296;29;20055;-75
2021/01/24 18:03:39;;;;;;;14.90;7.72;;;;;;;-0.32;77.59;97447.16;4868380;29;20089;-76
2021/01/24 18:06:04;;;;;;;19.60;11.10;;;;;;;-0.33;77.86;97442.91;4873440;29;20088;-76
2021/01/24 18:08:30;;;;;;;16.80;9.02;;;;;;;-0.35;78.14;97442.03;4871331;29;20029;-76
2021/01/24 18:10:55;;;;;;;23.58;13.13;;;;;;;-0.43;78.03;97441.19;4870280;29;21437;-75
2021/01/24 18:13:20;;;;;;;28.90;13.40;;;;;;;-0.51;78.16;97440.28;4872945;29;20035;-76
2021/01/24 18:15:45;;;;;;;28.92;14.43;;;;;;;-0.49;79.06;97443.69;4868281;29;20041;-76
2021/01/24 18:18:11;;;;;;;49.60;17.63;;;;;;;-0.42;79.10;97450.50;4871738;29;20036;-76
2021/01/24 18:20:36;;;;;;;6.63;4.88;;;;;;;-0.54;76.84;97450.44;4869930;29;20040;-76
2021/01/24 18:23:02;;;;;;;14.73;6.97;;;;;;;-0.52;76.86;97451.31;4866953;29;20033;-76
2021/01/24 18:25:27;;;;;;;30.75;11.43;;;;;;;-0.57;77.15;97455.53;4871615;29;20037;-76
2021/01/24 18:27:53;;;;;;;20.50;7.88;;;;;;;-0.58;77.05;97446.19;4870368;29;20124;-76
2021/01/24 18:30:18;;;;;;;17.58;8.50;;;;;;;-0.55;77.98;97428.41;4871463;29;20032;-76